Time;durP1;ratioP1;P1;durP2;ratioP2;P2;SDS_P1;SDS_P2;PMS_P1;PMS_P2;Temp;Humidity;BMP_temperature;BMP_pressure;BME280_temperature;BME280_humidity;BME280_pressure;Samples;Min_cycle;Max_cycle;Signal;HPM_P1;HPM_P2
2021/03/31 00:02:04;;;;;;;30.52;18.73;;;179.90;2252.80;;;;;;5010732;28;20025;-67
2021/03/31 00:04:29;;;;;;;32.55;19.75;;;179.80;2252.80;;;;;;5010977;28;20448;-66
2021/03/31 00:06:55;;;;;;;29.40;19.75;;;179.80;2252.80;;;;;;5010838;28;20057;-66
2021/03/31 00:09:21;;;;;;;36.72;21.63;;;179.80;2252.80;;;;;;5010498;28;20105;-67
2021/03/31 00:11:46;;;;;;;47.38;28.17;;;179.80;2252.80;;;;;;5010633;28;20129;-66
2021/03/31 00:14:16;;;;;;;58.88;29.92;;;179.80;2252.80;;;;;;5010655;28;20049;-66
2021/03/31 00:16:43;;;;;;;45.30;25.27;;;179.80;2252.80;;;;;;5010811;28;20045;-66
2021/03/31 00:19:09;;;;;;;53.50;30.08;;;179.80;2252.80;;;;;;5010671;28;20030;-67
2021/03/31 00:21:35;;;;;;;73.55;40.28;;;179.70;2252.80;;;;;;5013543;28;20026;-67
2021/03/31 00:24:00;;;;;;;52.08;32.40;;;179.70;2252.80;;;;;;5014508;28;20034;-66
2021/03/31 00:26:26;;;;;;;53.22;31.95;;;179.70;2252.80;;;;;;5000629;28;20076;-66
2021/03/31 00:28:52;;;;;;;69.90;42.28;;;179.70;2252.80;;;;;;5013784;28;20152;-66
2021/03/31 00:31:18;;;;;;;74.45;42.75;;;179.60;2252.80;;;;;;5014062;28;20103;-66
2021/03/31 00:33:44;;;;;;;60.05;35.92;;;179.70;2252.80;;;;;;5014149;28;20018;-66
2021/03/31 00:36:10;;;;;;;49.60;30.17;;;179.70;2252.80;;;;;;5014431;28;20032;-66
2021/03/31 00:38:36;;;;;;;47.03;27.02;;;179.70;2252.80;;;;;;5013588;28;20026;-66
2021/03/31 00:41:03;;;;;;;46.78;26.92;;;179.60;2252.80;;;;;;5014065;28;20378;-65
2021/03/31 00:43:29;;;;;;;45.00;24.38;;;179.60;2252.80;;;;;;5013833;28;20116;-66
2021/03/31 00:45:54;;;;;;;40.38;24.85;;;179.60;2252.80;;;;;;5013999;28;20093;-66
2021/03/31 00:48:20;;;;;;;42.40;24.02;;;179.50;2252.80;;;;;;5013723;28;20394;-66
2021/03/31 00:50:52;;;;;;;42.75;24.75;;;179.50;2252.80;;;;;;5013655;28;20101;-67
2021/03/31 00:53:39;;;;;;;44.58;26.35;;;179.40;2252.80;;;;;;5013839;28;20082;-66
2021/03/31 00:56:06;;;;;;;40.92;23.42;;;179.40;2252.80;;;;;;5014114;28;20107;-66
2021/03/31 00:58:32;;;;;;;46.97;24.90;;;179.20;2252.80;;;;;;5013222;28;20018;-67
2021/03/31 01:00:58;;;;;;;37.65;21.73;;;179.20;2252.80;;;;;;5013816;28;20028;-66
2021/03/31 01:03:24;;;;;;;34.35;19.77;;;179.20;2252.80;;;;;;5013635;28;20493;-66
2021/03/31 01:05:50;;;;;;;37.30;22.23;;;179.20;2252.80;;;;;;5013498;28;20026;-66
2021/03/31 01:08:16;;;;;;;33.67;19.92;;;179.20;2252.80;;;;;;5013832;28;20033;-67
2021/03/31 01:10:44;;;;;;;29.63;17.20;;;179.20;2252.80;;;;;;5012797;28;20033;-65
2021/03/31 01:13:37;;;;;;;28.02;16.55;;;179.20;2252.80;;;;;;5013471;28;20039;-66
2021/03/31 01:16:36;;;;;;;30.73;17.08;;;154.50;2252.80;;;;;;5013159;28;20022;-65
2021/03/31 01:19:29;;;;;;;27.48;14.93;;;154.50;2252.80;;;;;;5013100;28;20048;-67
2021/03/31 01:22:24;;;;;;;31.10;17.98;;;154.40;2252.80;;;;;;5013486;28;20101;-66
2021/03/31 01:25:20;;;;;;;27.55;17.15;;;154.30;2252.80;;;;;;5013342;28;20029;-67
2021/03/31 01:28:13;;;;;;;29.27;17.38;;;154.10;2252.80;;;;;;5013003;28;20030;-66
2021/03/31 01:30:52;;;;;;;29.70;17.45;;;153.90;2252.80;;;;;;5012662;28;20497;-66
2021/03/31 01:33:53;;;;;;;31.98;18.15;;;153.80;2252.80;;;;;;5011110;28;20112;-66
2021/03/31 01:36:19;;;;;;;;;;;153.70;2252.80;;;;;;5013822;28;20076;-66
2021/03/31 01:38:52;;;;;;;26.65;16.67;;;153.60;2252.80;;;;;;5012429;28;20420;-67
2021/03/31 01:41:19;;;;;;;28.05;17.02;;;128.90;2252.80;;;;;;5013040;28;20060;-67
2021/03/31 01:43:49;;;;;;;35.08;19.65;;;128.90;2252.80;;;;;;5013139;28;20021;-67
2021/03/31 01:46:17;;;;;;;33.10;19.80;;;128.90;2252.80;;;;;;5013014;28;20383;-66
2021/03/31 01:48:43;;;;;;;34.33;20.90;;;128.90;2252.80;;;;;;5011900;28;20022;-66
2021/03/31 01:51:11;;;;;;;36.45;19.85;;;128.80;2252.80;;;;;;5012496;28;20029;-67
2021/03/31 01:53:38;;;;;;;41.05;22.67;;;128.90;2252.80;;;;;;5012484;28;20044;-66
2021/03/31 01:56:05;;;;;;;46.17;24.45;;;128.90;2252.80;;;;;;5012214;28;20037;-66
2021/03/31 01:58:33;;;;;;;42.70;25.40;;;128.90;2252.80;;;;;;5007711;28;20116;-66
2021/03/31 02:01:00;;;;;;;53.90;28.20;;;128.90;2252.80;;;;;;5012798;28;20029;-66
2021/03/31 02:03:29;;;;;;;49.80;27.60;;;128.90;2252.80;;;;;;5012466;28;20022;-66
2021/03/31 02:05:56;;;;;;;59.30;29.40;;;128.80;2252.80;;;;;;5004586;28;20025;-67
2021/03/31 02:08:23;;;;;;;56.92;29.45;;;128.80;2252.80;;;;;;5012377;28;20033;-66
2021/03/31 02:10:50;;;;;;;54.33;27.05;;;128.70;2252.80;;;;;;5011881;28;20514;-66
2021/03/31 02:13:16;;;;;;;54.70;28.42;;;128.70;2252.80;;;;;;5012425;28;20049;-67
2021/03/31 02:15:43;;;;;;;41.75;23.00;;;128.70;2252.80;;;;;;5012114;28;20046;-67
2021/03/31 02:18:12;;;;;;;47.22;25.15;;;128.70;2252.80;;;;;;5011940;28;20037;-68
2021/03/31 02:20:38;;;;;;;41.05;23.67;;;128.70;2252.80;;;;;;5011845;28;20014;-67
2021/03/31 02:23:04;;;;;;;44.20;24.77;;;128.70;2252.80;;;;;;5012169;28;20033;-66
2021/03/31 02:25:31;;;;;;;40.55;23.60;;;128.60;2252.80;;;;;;5012315;28;20112;-66
2021/03/31 02:27:57;;;;;;;41.17;24.42;;;128.60;2252.80;;;;;;5011862;28;20057;-66
2021/03/31 02:30:26;;;;;;;34.95;20.67;;;128.60;2252.80;;;;;;5011754;28;20061;-66
2021/03/31 02:32:55;;;;;;;39.15;21.17;;;128.60;2252.80;;;;;;5011999;28;20443;-65
2021/03/31 02:35:23;;;;;;;43.90;22.05;;;128.60;2252.80;;;;;;5011958;28;20038;-66
2021/03/31 02:38:00;;;;;;;39.28;21.40;;;128.60;2252.80;;;;;;5011877;28;20041;-66
2021/03/31 02:40:27;;;;;;;39.80;20.42;;;128.50;2252.80;;;;;;5011376;28;20360;-66
2021/03/31 02:42:54;;;;;;;41.00;22.33;;;128.50;2252.80;;;;;;5011915;28;20060;-66
2021/03/31 02:45:24;;;;;;;43.45;23.55;;;128.50;2252.80;;;;;;5011022;28;20057;-67
2021/03/31 02:47:51;;;;;;;47.92;25.52;;;128.40;2252.80;;;;;;5011793;28;20022;-65
2021/03/31 02:50:20;;;;;;;47.88;26.15;;;128.40;2252.80;;;;;;5011861;28;20076;-65
2021/03/31 02:52:48;;;;;;;46.55;25.88;;;128.30;2252.80;;;;;;5011662;28;20859;-65
2021/03/31 02:55:15;;;;;;;47.40;26.30;;;128.30;2252.80;;;;;;5011511;28;20032;-66
2021/03/31 02:57:43;;;;;;;49.47;28.65;;;128.20;2252.80;;;;;;5011440;28;20034;-66
2021/03/31 03:00:11;;;;;;;63.65;28.80;;;128.20;2252.80;;;;;;5011188;28;20088;-65
2021/03/31 03:02:38;;;;;;;58.20;29.98;;;128.20;2252.80;;;;;;5011839;28;20512;-65
2021/03/31 03:05:06;;;;;;;60.05;31.13;;;128.20;2252.80;;;;;;5011300;28;20049;-66
2021/03/31 03:07:35;;;;;;;69.60;33.42;;;128.00;2252.80;;;;;;5011597;28;20443;-66
2021/03/31 03:10:03;;;;;;;60.65;30.77;;;128.00;2252.80;;;;;;5010964;28;20072;-66
2021/03/31 03:12:29;;;;;;;62.90;31.48;;;103.30;2227.20;;;;;;5011264;28;20053;-66
2021/03/31 03:14:56;;;;;;;52.72;29.25;;;103.30;2227.20;;;;;;5011428;28;20071;-67
2021/03/31 03:17:22;;;;;;;49.90;27.60;;;103.20;2227.20;;;;;;5011291;28;20025;-66
2021/03/31 03:19:48;;;;;;;48.40;26.63;;;103.20;2227.20;;;;;;5011781;28;20026;-67
2021/03/31 03:22:15;;;;;;;49.45;26.77;;;103.20;2227.20;;;;;;5011208;28;20109;-66
2021/03/31 03:24:46;;;;;;;42.65;24.77;;;103.20;2227.20;;;;;;5011239;28;20038;-66
2021/03/31 03:27:14;;;;;;;45.25;26.10;;;103.20;2227.20;;;;;;5011234;28;20483;-65
2021/03/31 03:29:45;;;;;;;50.33;25.08;;;103.20;2227.20;;;;;;5010974;28;20033;-67
2021/03/31 03:32:11;;;;;;;42.70;21.70;;;103.20;2227.20;;;;;;5011112;28;20113;-66
2021/03/31 03:34:37;;;;;;;39.70;22.17;;;103.20;2227.20;;;;;;5011335;28;20097;-67
2021/03/31 03:37:04;;;;;;;38.30;21.08;;;103.20;2227.20;;;;;;5011158;28;20022;-66
2021/03/31 03:39:29;;;;;;;36.13;20.40;;;103.20;2227.20;;;;;;5010395;28;20054;-66
2021/03/31 03:41:55;;;;;;;38.45;20.83;;;103.20;2227.20;;;;;;5011298;28;20022;-67
2021/03/31 03:44:23;;;;;;;42.00;21.85;;;103.20;2227.20;;;;;;5011060;28;20030;-66
2021/03/31 03:46:53;;;;;;;42.90;21.90;;;103.10;2227.20;;;;;;5011092;28;20076;-67
2021/03/31 03:49:18;;;;;;;46.63;23.45;;;103.10;2227.20;;;;;;5010884;28;20034;-65
2021/03/31 03:51:45;;;;;;;41.80;24.23;;;103.00;2227.20;;;;;;5010661;28;20038;-66
2021/03/31 03:54:11;;;;;;;46.70;25.85;;;102.90;2227.20;;;;;;5010125;28;20100;-66
2021/03/31 03:56:37;;;;;;;50.05;27.17;;;102.70;2227.20;;;;;;5014288;28;20463;-65
2021/03/31 03:59:23;;;;;;;53.28;28.48;;;102.70;2227.20;;;;;;5014697;28;20029;-67
2021/03/31 04:01:50;;;;;;;53.03;28.58;;;102.60;2227.20;;;;;;5014803;28;20026;-68
2021/03/31 04:04:17;;;;;;;53.50;30.67;;;102.60;2227.20;;;;;;5014954;28;20030;-65
2021/03/31 04:06:43;;;;;;;49.22;30.20;;;102.50;2227.20;;;;;;5014469;28;20501;-68
2021/03/31 04:09:09;;;;;;;46.83;27.58;;;77.70;2227.20;;;;;;5014437;28;20112;-67
2021/03/31 04:11:37;;;;;;;50.75;29.35;;;77.50;2227.20;;;;;;5014533;28;20080;-66
2021/03/31 04:14:04;;;;;;;47.25;27.80;;;77.50;2227.20;;;;;;5014527;28;20034;-70
2021/03/31 04:16:32;;;;;;;46.45;28.40;;;77.50;2227.20;;;;;;5014505;28;20027;-68
2021/03/31 04:19:03;;;;;;;45.05;26.50;;;77.40;2227.20;;;;;;5014284;28;20076;-66
2021/03/31 04:21:31;;;;;;;45.47;25.73;;;77.50;2227.20;;;;;;5014453;28;20120;-66
2021/03/31 04:23:58;;;;;;;44.58;26.25;;;77.50;2227.20;;;;;;5014463;28;20037;-67
2021/03/31 04:26:25;;;;;;;52.15;29.80;;;77.50;2227.20;;;;;;5014478;28;20022;-66
2021/03/31 04:28:54;;;;;;;72.40;35.10;;;77.50;2227.20;;;;;;5013929;28;20767;-65
2021/03/31 04:31:22;;;;;;;66.75;34.80;;;77.50;2227.20;;;;;;5014294;28;20061;-67
2021/03/31 04:33:50;;;;;;;58.17;33.85;;;77.40;2227.20;;;;;;5014500;28;20116;-65
2021/03/31 04:36:16;;;;;;;49.05;28.45;;;77.40;2227.20;;;;;;5014570;28;20033;-66
2021/03/31 04:38:48;;;;;;;47.00;25.58;;;77.60;2227.20;;;;;;5013936;28;20105;-67
2021/03/31 04:41:15;;;;;;;42.80;23.75;;;77.70;2227.20;;;;;;5013800;28;20032;-67
2021/03/31 04:43:41;;;;;;;36.22;20.67;;;77.70;2227.20;;;;;;5014108;28;20033;-64
2021/03/31 04:46:10;;;;;;;29.67;19.33;;;102.60;2227.20;;;;;;5014185;28;20084;-65
2021/03/31 04:48:39;;;;;;;52.78;26.95;;;102.90;2227.20;;;;;;5000292;28;20028;-70
2021/03/31 04:51:06;;;;;;;77.15;31.90;;;103.10;2227.20;;;;;;5014023;28;20029;-66
2021/03/31 04:53:33;;;;;;;53.13;26.60;;;103.00;2227.20;;;;;;5013849;28;20522;-67
2021/03/31 04:55:59;;;;;;;47.72;24.70;;;103.30;2227.20;;;;;;5013906;28;20017;-69
2021/03/31 04:58:25;;;;;;;34.78;20.17;;;128.30;2252.80;;;;;;5013402;28;20494;-66
2021/03/31 05:00:51;;;;;;;35.45;20.25;;;128.40;2252.80;;;;;;5013842;28;20109;-66
2021/03/31 05:03:17;;;;;;;34.75;20.65;;;128.50;2252.80;;;;;;5013493;28;20554;-66
2021/03/31 05:05:43;;;;;;;32.95;20.35;;;128.90;2252.80;;;;;;5013544;28;20022;-66
2021/03/31 05:08:09;;;;;;;34.35;19.95;;;153.80;2252.80;;;;;;5012592;28;20033;-66
2021/03/31 05:10:35;;;;;;;45.78;21.30;;;153.90;2252.80;;;;;;5012811;28;20037;-66
2021/03/31 05:13:01;;;;;;;55.35;26.77;;;154.00;2252.80;;;;;;5013578;28;20038;-66
2021/03/31 05:15:27;;;;;;;51.22;26.50;;;154.00;2252.80;;;;;;5013490;28;20029;-66
2021/03/31 05:17:52;;;;;;;34.83;20.42;;;154.40;2252.80;;;;;;5013435;28;20017;-66
2021/03/31 05:20:19;;;;;;;31.42;18.50;;;179.50;2252.80;;;;;;5011602;28;20026;-67
2021/03/31 05:22:44;;;;;;;28.13;17.50;;;180.00;2252.80;;;;;;5013352;28;20422;-66
2021/03/31 05:25:11;;;;;;;27.48;17.30;;;204.80;2252.80;;;;;;5013295;28;20088;-67
2021/03/31 05:27:37;;;;;;;36.90;20.98;;;180.10;2252.80;;;;;;5013002;28;20029;-67
2021/03/31 05:30:05;;;;;;;53.38;30.05;;;204.80;2252.80;;;;;;5012913;28;20030;-66
2021/03/31 05:32:31;;;;;;;28.08;18.33;;;205.10;2252.80;;;;;;5012684;28;20022;-66
2021/03/31 05:34:57;;;;;;;27.85;18.40;;;205.40;2252.80;;;;;;5013222;28;20028;-67
2021/03/31 05:37:23;;;;;;;24.83;16.38;;;230.60;2201.60;;;;;;5013058;28;20029;-67
2021/03/31 05:39:49;;;;;;;35.35;20.88;;;231.00;2099.20;;;;;;5012662;28;20479;-68
2021/03/31 05:42:16;;;;;;;29.92;20.33;;;256.30;2022.40;;;;;;5012896;28;20104;-67
2021/03/31 05:44:43;;;;;;;39.13;23.55;;;256.70;1945.60;;;;;;5012840;28;20068;-68
2021/03/31 05:47:12;;;;;;;31.02;19.80;;;281.80;1945.60;;;;;;5013023;28;20025;-67
2021/03/31 05:49:38;;;;;;;33.65;22.13;;;282.50;1894.40;;;;;;5012745;28;20025;-67
2021/03/31 05:52:07;;;;;;;29.98;20.77;;;282.30;1894.40;;;;;;5012682;28;20061;-67
2021/03/31 05:54:33;;;;;;;30.05;21.77;;;282.50;1817.60;;;;;;5012732;28;20029;-67
2021/03/31 05:56:59;;;;;;;29.40;21.75;;;307.90;1766.40;;;;;;5012465;28;20025;-67
2021/03/31 05:59:25;;;;;;;31.05;21.27;;;333.20;1740.80;;;;;;5012315;28;20542;-68
2021/03/31 06:01:51;;;;;;;31.70;22.83;;;358.70;1664.00;;;;;;5012358;28;20113;-67
2021/03/31 06:04:18;;;;;;;31.15;23.10;;;358.90;1587.20;;;;;;5012755;28;20079;-67
2021/03/31 06:06:43;;;;;;;31.25;22.05;;;359.00;1561.60;;;;;;5012205;28;20025;-67
2021/03/31 06:09:10;;;;;;;28.83;20.67;;;359.10;1561.60;;;;;;5012239;28;20038;-68
2021/03/31 06:11:54;;;;;;;26.92;21.02;;;384.00;1561.60;;;;;;5012243;28;20050;-67
2021/03/31 06:14:35;;;;;;;25.55;19.75;;;384.40;1510.40;;;;;;5001081;28;20049;-66
2021/03/31 06:17:13;;;;;;;24.13;18.80;;;410.20;1484.80;;;;;;5012120;28;20494;-67
2021/03/31 06:19:44;;;;;;;25.92;19.65;;;435.20;1433.60;;;;;;5012258;28;20030;-68
2021/03/31 06:24:47;;;;;;;24.95;19.02;;;461.00;1382.40;;;;;;5012273;28;20048;-68
2021/03/31 06:27:14;;;;;;;24.80;21.13;;;486.50;1305.60;;;;;;5011851;28;20018;-68
2021/03/31 06:29:43;;;;;;;27.88;20.17;;;512.00;1228.80;;;;;;5011716;28;20282;-67
2021/03/31 06:32:19;;;;;;;27.75;21.63;;;512.40;1228.80;;;;;;5011892;28;20030;-68
2021/03/31 06:34:56;;;;;;;26.83;20.25;;;538.40;1152.00;;;;;;5012499;28;20424;-68
2021/03/31 06:37:24;;;;;;;28.83;21.08;;;564.10;1126.40;;;;;;5011619;28;20049;-68
2021/03/31 06:39:51;;;;;;;32.63;24.08;;;589.40;1075.20;;;;;;5011435;28;20368;-68
2021/03/31 06:42:20;;;;;;;33.20;24.25;;;589.70;1049.60;;;;;;5011838;28;20101;-68
2021/03/31 06:50:06;;;;;;;34.72;25.73;;;666.20;921.60;;;;;;5011300;28;19939;-67
2021/03/31 06:52:32;;;;;;;35.80;25.25;;;665.70;921.60;;;;;;5011859;28;20021;-67
2021/03/31 06:55:03;;;;;;;34.20;23.38;;;666.00;921.60;;;;;;5011717;28;20028;-66
2021/03/31 06:57:33;;;;;;;34.97;25.50;;;640.40;921.60;;;;;;5011563;28;20057;-66
2021/03/31 07:00:11;;;;;;;31.33;22.20;;;691.20;896.00;;;;;;5011313;28;20144;-67
2021/03/31 07:02:39;;;;;;;31.33;21.35;;;666.50;896.00;;;;;;5000850;28;20037;-70
2021/03/31 07:05:07;;;;;;;34.17;22.80;;;691.70;844.80;;;;;;4995929;28;20037;-68
2021/03/31 07:07:38;;;;;;;25.48;19.85;;;691.70;870.40;;;;;;5003915;28;20034;-67
2021/03/31 07:10:08;;;;;;;30.25;19.98;;;691.20;870.40;;;;;;5011048;28;20033;-68
2021/03/31 07:12:39;;;;;;;25.70;18.80;;;691.90;844.80;;;;;;5011261;28;20398;-68
2021/03/31 07:15:06;;;;;;;26.55;19.60;;;717.40;844.80;;;;;;5011376;28;20022;-68
2021/03/31 07:17:33;;;;;;;21.63;17.73;;;742.50;844.80;;;;;;5005293;28;20076;-68
2021/03/31 07:20:00;;;;;;;17.67;13.80;;;768.10;793.60;;;;;;5004208;28;20014;-68
2021/03/31 07:22:26;;;;;;;18.77;14.55;;;768.60;793.60;;;;;;5011646;28;20491;-68
2021/03/31 07:24:55;;;;;;;15.65;13.25;;;794.50;793.60;;;;;;5011230;28;20446;-68
2021/03/31 07:27:25;;;;;;;14.13;11.60;;;819.30;742.40;;;;;;5011411;28;20030;-69
2021/03/31 07:30:11;;;;;;;17.92;12.70;;;819.30;742.40;;;;;;5002816;28;20034;-69
2021/03/31 07:33:03;;;;;;;15.40;13.23;;;768.40;768.00;;;;;;5000044;28;20076;-67
2021/03/31 07:35:35;;;;;;;20.38;13.50;;;819.70;742.40;;;;;;4994906;28;20046;-68
2021/03/31 07:38:04;;;;;;;20.52;13.73;;;845.30;768.00;;;;;;5000342;28;20042;-68
2021/03/31 07:40:31;;;;;;;16.23;12.57;;;845.40;742.40;;;;;;5002796;28;20022;-69
2021/03/31 07:43:07;;;;;;;14.88;12.63;;;845.70;742.40;;;;;;5001972;28;20026;-68
2021/03/31 07:45:48;;;;;;;16.85;13.70;;;896.10;665.60;;;;;;5008467;28;20136;-68
2021/03/31 07:48:15;;;;;;;13.48;12.02;;;870.40;716.80;;;;;;5003784;28;20046;-68
2021/03/31 07:50:41;;;;;;;17.23;13.85;;;896.90;665.60;;;;;;4997694;28;20034;-69
2021/03/31 07:53:07;;;;;;;17.70;14.32;;;896.90;640.00;;;;;;4998657;28;20026;-70
2021/03/31 07:55:38;;;;;;;18.20;15.10;;;922.00;665.60;;;;;;5000861;28;20041;-68
2021/03/31 07:58:13;;;;;;;32.55;28.13;;;896.30;665.60;;;;;;5001372;28;20030;-68
2021/03/31 08:01:03;;;;;;;19.83;15.90;;;896.00;665.60;;;;;;5008456;28;20390;-68
2021/03/31 08:03:41;;;;;;;23.58;18.00;;;896.40;665.60;;;;;;5001085;28;20088;-67
2021/03/31 08:06:23;;;;;;;19.20;17.02;;;896.80;640.00;;;;;;5006004;28;20034;-68
2021/03/31 08:08:50;;;;;;;21.42;18.20;;;947.60;640.00;;;;;;5002187;28;20029;-68
2021/03/31 08:11:40;;;;;;;17.98;13.75;;;972.80;640.00;;;;;;4999581;28;20050;-68
2021/03/31 08:14:07;;;;;;;19.65;13.77;;;973.70;614.40;;;;;;4998821;28;20018;-68
2021/03/31 08:16:38;;;;;;;15.93;10.93;;;947.20;640.00;;;;;;5009984;28;20022;-68
2021/03/31 08:19:07;;;;;;;13.00;10.25;;;973.60;614.40;;;;;;5016978;28;20026;-66
2021/03/31 08:21:33;;;;;;;11.88;8.77;;;973.50;614.40;;;;;;5016940;28;20025;-67
2021/03/31 08:24:02;;;;;;;14.27;10.63;;;998.50;614.40;;;;;;5016904;28;20021;-67
2021/03/31 08:26:41;;;;;;;11.85;9.80;;;999.00;588.80;;;;;;5008880;28;20425;-66
2021/03/31 08:29:19;;;;;;;12.15;9.32;;;1024.60;563.20;;;;;;4997247;28;20030;-67
2021/03/31 08:31:56;;;;;;;13.43;10.45;;;1050.10;563.20;;;;;;5004403;28;20484;-67
2021/03/31 08:34:23;;;;;;;11.05;8.65;;;999.30;588.80;;;;;;5001570;28;20034;-67
2021/03/31 08:36:50;;;;;;;10.40;9.00;;;999.30;563.20;;;;;;4999452;28;20088;-68
2021/03/31 08:39:16;;;;;;;11.32;8.65;;;973.60;563.20;;;;;;5000108;28;20112;-67
2021/03/31 08:41:46;;;;;;;11.10;8.40;;;1050.30;563.20;;;;;;5001550;28;20061;-67
2021/03/31 08:44:23;;;;;;;7.90;6.63;;;1075.30;537.60;;;;;;5003675;28;20031;-67
2021/03/31 08:46:52;;;;;;;10.00;8.02;;;1050.30;537.60;;;;;;4996875;28;20027;-68
2021/03/31 08:49:27;;;;;;;11.43;8.63;;;1024.10;563.20;;;;;;5005898;28;20022;-67
2021/03/31 08:51:59;;;;;;;10.70;9.02;;;1050.30;563.20;;;;;;5014199;28;20033;-66
2021/03/31 08:54:33;;;;;;;9.63;7.65;;;1101.50;512.00;;;;;;5013762;28;20053;-68
2021/03/31 08:57:00;;;;;;;9.20;6.82;;;1101.50;512.00;;;;;;5011251;28;20509;-67
2021/03/31 08:59:37;;;;;;;8.80;7.18;;;1076.10;512.00;;;;;;5013252;28;20453;-69
2021/03/31 09:02:04;;;;;;;10.85;7.15;;;1101.00;537.60;;;;;;5013503;28;20836;-68
2021/03/31 09:04:31;;;;;;;9.95;7.22;;;1075.30;512.00;;;;;;5013757;28;20061;-69
2021/03/31 09:06:58;;;;;;;9.18;7.20;;;1076.10;512.00;;;;;;5013378;28;20014;-68
2021/03/31 09:09:30;;;;;;;12.60;7.78;;;1075.20;512.00;;;;;;5012914;28;20025;-69
2021/03/31 09:12:05;;;;;;;8.57;6.60;;;1075.70;512.00;;;;;;5013541;28;20518;-69
2021/03/31 09:14:31;;;;;;;11.00;7.47;;;1075.80;512.00;;;;;;5013344;28;20033;-68
2021/03/31 09:16:58;;;;;;;8.68;7.13;;;1075.40;512.00;;;;;;5013380;28;20024;-68
2021/03/31 09:19:29;;;;;;;9.43;6.70;;;999.20;537.60;;;;;;5013187;28;20177;-70
2021/03/31 09:21:55;;;;;;;8.30;6.63;;;1101.10;512.00;;;;;;5013328;28;20021;-68
2021/03/31 09:24:28;;;;;;;8.88;6.22;;;1101.00;512.00;;;;;;5013096;28;20041;-68
2021/03/31 09:26:57;;;;;;;8.15;6.38;;;1152.10;486.40;;;;;;5013379;28;20034;-68
2021/03/31 09:29:25;;;;;;;8.73;6.25;;;1178.50;460.80;;;;;;5005342;28;20022;-68
2021/03/31 09:31:51;;;;;;;9.23;6.95;;;1178.10;460.80;;;;;;5013105;28;20022;-72
2021/03/31 09:34:18;;;;;;;11.18;6.82;;;1203.30;486.40;;;;;;5013008;28;20548;-69
2021/03/31 09:36:57;;;;;;;8.48;6.68;;;1177.60;460.80;;;;;;5012953;28;20072;-69
2021/03/31 09:39:22;;;;;;;9.80;7.00;;;1177.60;460.80;;;;;;5012172;28;20021;-68
2021/03/31 09:41:48;;;;;;;8.70;5.75;;;1177.80;460.80;;;;;;5013104;28;20255;-68
2021/03/31 09:44:14;;;;;;;9.85;6.65;;;1178.20;460.80;;;;;;5013382;28;20435;-68
2021/03/31 09:46:40;;;;;;;8.50;6.03;;;1178.30;460.80;;;;;;5013189;28;20117;-68
2021/03/31 09:49:06;;;;;;;8.25;5.55;;;1177.60;460.80;;;;;;5012332;28;20022;-68
2021/03/31 09:51:32;;;;;;;9.27;5.70;;;1152.50;460.80;;;;;;5012231;28;20075;-69
2021/03/31 09:53:58;;;;;;;6.72;5.47;;;1203.90;460.80;;;;;;5002603;28;20022;-68
2021/03/31 09:56:24;;;;;;;8.80;5.20;;;1254.60;486.40;;;;;;5004995;28;20029;-69
2021/03/31 09:58:50;;;;;;;6.25;4.80;;;1254.60;486.40;;;;;;5005898;28;20022;-69
2021/03/31 10:01:18;;;;;;;7.97;5.30;;;1280.40;486.40;;;;;;5012605;28;20041;-68
2021/03/31 10:03:46;;;;;;;8.60;5.82;;;1254.80;486.40;;;;;;5012127;28;20022;-68
2021/03/31 10:06:20;;;;;;;7.45;5.38;;;1229.20;460.80;;;;;;5012383;28;20033;-68
2021/03/31 10:08:47;;;;;;;7.97;5.13;;;1203.70;460.80;;;;;;5012247;28;20026;-67
2021/03/31 10:11:35;;;;;;;8.05;5.10;;;1228.90;460.80;;;;;;5012244;28;20038;-67
2021/03/31 10:14:05;;;;;;;7.53;4.70;;;1203.90;435.20;;;;;;5012111;28;20556;-67
2021/03/31 10:16:32;;;;;;;;;;;1204.10;435.20;;;;;;5013134;28;20040;-67
2021/03/31 10:18:58;;;;;;;8.35;5.07;;;1228.80;460.80;;;;;;5011745;28;19912;-67
2021/03/31 10:21:34;;;;;;;7.63;5.18;;;1178.50;435.20;;;;;;5012318;28;20026;-67
2021/03/31 10:24:02;;;;;;;6.25;4.72;;;1203.40;460.80;;;;;;5012009;28;20507;-66
2021/03/31 10:26:30;;;;;;;6.80;5.00;;;1229.40;460.80;;;;;;5012536;28;20025;-68
2021/03/31 10:29:01;;;;;;;7.90;5.10;;;1254.90;486.40;;;;;;5011720;28;20018;-68
2021/03/31 10:31:39;;;;;;;6.38;4.82;;;1305.90;486.40;;;;;;5012421;28;20060;-67
2021/03/31 10:34:06;;;;;;;8.93;5.10;;;1331.20;512.00;;;;;;5011851;28;20045;-68
2021/03/31 10:49:51;;;;;;;8.50;5.35;;;1024.60;512.00;;;;;;5011116;28;20038;-67
2021/03/31 10:52:21;;;;;;;7.68;5.30;;;972.90;537.60;;;;;;5011816;28;20029;-66
2021/03/31 10:54:47;;;;;;;8.85;5.28;;;896.60;563.20;;;;;;5011441;28;20373;-68
2021/03/31 10:57:13;;;;;;;8.77;5.47;;;819.70;614.40;;;;;;5011244;28;20100;-68
2021/03/31 10:59:40;;;;;;;7.75;4.93;;;794.20;640.00;;;;;;5004759;28;20040;-67
2021/03/31 11:02:06;;;;;;;9.02;5.50;;;768.50;665.60;;;;;;5010944;28;20125;-69
2021/03/31 11:04:32;;;;;;;8.68;5.18;;;742.50;691.20;;;;;;5010796;28;20037;-67
2021/03/31 11:06:59;;;;;;;7.38;5.10;;;717.40;691.20;;;;;;5011254;28;20049;-65
2021/03/31 11:09:27;;;;;;;7.15;5.18;;;691.80;691.20;;;;;;5011467;28;20030;-65
2021/03/31 11:11:53;;;;;;;8.52;5.40;;;691.60;742.40;;;;;;5011159;28;20061;-64
2021/03/31 11:14:19;;;;;;;10.40;5.70;;;691.30;742.40;;;;;;5002761;28;20034;-67
2021/03/31 11:16:53;;;;;;;7.03;5.28;;;666.50;716.80;;;;;;4992843;28;20057;-65
2021/03/31 11:27:34;;;;;;;6.90;5.15;;;564.10;793.60;;;;;;4994586;28;20033;-76
2021/03/31 11:30:03;;;;;;;7.93;5.60;;;564.00;819.20;;;;;;4992698;28;20026;-68
2021/03/31 11:32:29;;;;;;;10.30;6.40;;;563.90;819.20;;;;;;5005875;28;20025;-68
2021/03/31 11:34:55;;;;;;;9.73;5.85;;;564.00;819.20;;;;;;4992138;28;20483;-66
2021/03/31 11:37:21;;;;;;;9.23;5.53;;;563.80;819.20;;;;;;4992799;28;20033;-67
2021/03/31 11:39:47;;;;;;;9.30;5.13;;;588.80;844.80;;;;;;4992920;28;20042;-67
2021/03/31 11:42:12;;;;;;;9.70;5.15;;;564.10;819.20;;;;;;4992102;28;20053;-68
2021/03/31 11:44:38;;;;;;;7.78;5.00;;;588.80;819.20;;;;;;4993613;28;20034;-67
2021/03/31 11:47:04;;;;;;;7.80;5.03;;;589.30;819.20;;;;;;4992014;28;20081;-66
2021/03/31 11:49:29;;;;;;;8.15;5.15;;;589.00;793.60;;;;;;4991476;28;20023;-68
2021/03/31 11:51:55;;;;;;;5.90;4.60;;;564.10;819.20;;;;;;4993955;28;20014;-67
2021/03/31 11:54:21;;;;;;;6.10;4.88;;;589.20;819.20;;;;;;4993502;28;20022;-67
2021/03/31 11:56:46;;;;;;;7.07;5.00;;;589.40;793.60;;;;;;4997439;28;20152;-66
2021/03/31 11:59:12;;;;;;;6.70;4.90;;;589.50;793.60;;;;;;4999232;28;20018;-67
2021/03/31 12:01:38;;;;;;;7.05;5.10;;;589.60;793.60;;;;;;4995616;28;20049;-68
2021/03/31 12:04:04;;;;;;;7.82;4.90;;;589.50;793.60;;;;;;5003903;28;20053;-70
2021/03/31 12:06:29;;;;;;;10.20;4.70;;;589.70;793.60;;;;;;4996230;28;20032;-68
2021/03/31 12:08:55;;;;;;;8.15;5.10;;;614.50;819.20;;;;;;4995359;28;20026;-68
2021/03/31 12:11:21;;;;;;;8.00;5.13;;;614.70;793.60;;;;;;4992585;28;20043;-68
2021/03/31 12:13:47;;;;;;;6.95;5.03;;;614.60;793.60;;;;;;4993675;28;20403;-68
2021/03/31 12:16:12;;;;;;;7.95;5.15;;;614.90;793.60;;;;;;5001451;28;20101;-69
2021/03/31 12:18:38;;;;;;;7.78;5.20;;;614.80;768.00;;;;;;5014088;28;20025;-69
2021/03/31 12:21:06;;;;;;;9.38;5.60;;;614.80;793.60;;;;;;5014381;28;20022;-72
2021/03/31 12:23:31;;;;;;;9.48;5.75;;;614.70;793.60;;;;;;5014491;28;20038;-69
2021/03/31 12:25:58;;;;;;;7.45;5.38;;;614.60;793.60;;;;;;5010284;28;20498;-68
2021/03/31 12:28:26;;;;;;;9.38;5.18;;;614.70;819.20;;;;;;4995995;28;20019;-68
2021/03/31 12:30:53;;;;;;;7.55;5.03;;;614.70;768.00;;;;;;4996902;28;20448;-68
2021/03/31 12:33:20;;;;;;;7.05;5.30;;;614.40;768.00;;;;;;4995472;28;20674;-69
2021/03/31 12:35:46;;;;;;;7.05;5.00;;;589.40;793.60;;;;;;4995400;28;20442;-68
2021/03/31 12:38:12;;;;;;;7.68;5.57;;;588.90;819.20;;;;;;5005043;28;20391;-68
2021/03/31 12:40:37;;;;;;;12.38;7.88;;;589.10;844.80;;;;;;5008794;28;20025;-69
2021/03/31 12:43:03;;;;;;;8.98;6.80;;;589.30;819.20;;;;;;5011937;28;20112;-68
2021/03/31 12:45:29;;;;;;;9.30;5.10;;;589.40;819.20;;;;;;4995417;28;20472;-70
2021/03/31 12:47:55;;;;;;;9.32;5.60;;;588.90;819.20;;;;;;4995972;28;20046;-69